sensor_id;sensor_type;location;lat;lon;timestamp;pressure;altitude;pressure_sealevel;temperature;humidity
45285;BME280;31026;43.780;25.948;2023-03-26T00:02:04;100074.69;;;17.59;68.93
45285;BME280;31026;43.780;25.948;2023-03-26T00:07:20;100079.31;;;17.57;68.59
45285;BME280;31026;43.780;25.948;2023-03-26T00:09:48;100076.09;;;17.53;68.86
45285;BME280;31026;43.780;25.948;2023-03-26T00:12:17;100060.88;;;17.54;68.70
45285;BME280;31026;43.780;25.948;2023-03-26T00:14:48;100061.72;;;17.54;68.43
45285;BME280;31026;43.780;25.948;2023-03-26T00:17:17;100063.56;;;17.54;68.70
45285;BME280;31026;43.780;25.948;2023-03-26T00:19:45;100067.91;;;17.55;68.74
45285;BME280;31026;43.780;25.948;2023-03-26T00:22:13;100038.81;;;17.52;68.44
45285;BME280;31026;43.780;25.948;2023-03-26T00:24:44;100030.78;;;17.52;68.44
45285;BME280;31026;43.780;25.948;2023-03-26T00:27:15;100040.47;;;17.53;68.34
45285;BME280;31026;43.780;25.948;2023-03-26T00:29:44;100020.09;;;17.52;68.52
45285;BME280;31026;43.780;25.948;2023-03-26T00:32:15;100035.44;;;17.49;68.90
45285;BME280;31026;43.780;25.948;2023-03-26T00:34:43;100061.84;;;17.53;68.56
45285;BME280;31026;43.780;25.948;2023-03-26T00:37:12;100053.13;;;17.50;68.43
45285;BME280;31026;43.780;25.948;2023-03-26T00:39:42;100080.16;;;17.47;68.77
45285;BME280;31026;43.780;25.948;2023-03-26T00:42:14;100078.91;;;17.52;68.59
45285;BME280;31026;43.780;25.948;2023-03-26T00:44:42;100066.09;;;17.45;68.44
45285;BME280;31026;43.780;25.948;2023-03-26T00:47:11;100078.31;;;17.48;68.68
45285;BME280;31026;43.780;25.948;2023-03-26T00:49:42;100068.47;;;17.48;68.63
45285;BME280;31026;43.780;25.948;2023-03-26T00:52:13;100075.78;;;17.46;68.64
45285;BME280;31026;43.780;25.948;2023-03-26T00:54:44;100049.94;;;17.47;68.62
45285;BME280;31026;43.780;25.948;2023-03-26T00:57:13;100082.00;;;17.47;68.72
45285;BME280;31026;43.780;25.948;2023-03-26T00:59:43;100097.19;;;17.46;68.49
45285;BME280;31026;43.780;25.948;2023-03-26T01:02:11;100106.06;;;17.47;68.64
45285;BME280;31026;43.780;25.948;2023-03-26T01:04:46;100101.97;;;17.43;68.53
45285;BME280;31026;43.780;25.948;2023-03-26T01:07:20;100125.03;;;17.44;68.38
45285;BME280;31026;43.780;25.948;2023-03-26T01:09:54;100116.31;;;17.42;68.47
45285;BME280;31026;43.780;25.948;2023-03-26T01:12:23;100118.16;;;17.41;68.59
45285;BME280;31026;43.780;25.948;2023-03-26T01:14:53;100132.09;;;17.45;68.44
45285;BME280;31026;43.780;25.948;2023-03-26T01:17:26;100137.69;;;17.42;68.83
45285;BME280;31026;43.780;25.948;2023-03-26T01:20:05;100137.84;;;17.40;68.59
45285;BME280;31026;43.780;25.948;2023-03-26T01:22:38;100154.56;;;17.42;68.65
45285;BME280;31026;43.780;25.948;2023-03-26T01:25:11;100165.44;;;17.41;68.59
45285;BME280;31026;43.780;25.948;2023-03-26T01:27:41;100162.59;;;17.42;68.92
45285;BME280;31026;43.780;25.948;2023-03-26T01:30:14;100159.22;;;17.40;68.91
45285;BME280;31026;43.780;25.948;2023-03-26T01:32:51;100167.09;;;17.42;68.69
45285;BME280;31026;43.780;25.948;2023-03-26T01:35:31;100154.88;;;17.39;68.64
45285;BME280;31026;43.780;25.948;2023-03-26T01:38:05;100151.50;;;17.37;68.90
45285;BME280;31026;43.780;25.948;2023-03-26T01:40:47;100165.69;;;17.38;68.72
45285;BME280;31026;43.780;25.948;2023-03-26T01:43:23;100161.06;;;17.40;68.87
45285;BME280;31026;43.780;25.948;2023-03-26T01:45:52;100147.97;;;17.37;68.50
45285;BME280;31026;43.780;25.948;2023-03-26T01:48:27;100132.09;;;17.35;68.52
45285;BME280;31026;43.780;25.948;2023-03-26T01:50:56;100133.75;;;17.95;67.25
45285;BME280;31026;43.780;25.948;2023-03-26T01:53:25;100130.13;;;19.16;63.68
45285;BME280;31026;43.780;25.948;2023-03-26T01:55:58;100134.69;;;19.96;61.70
45285;BME280;31026;43.780;25.948;2023-03-26T01:58:31;100135.91;;;20.27;60.69
45285;BME280;31026;43.780;25.948;2023-03-26T02:01:05;100118.84;;;20.11;61.43
45285;BME280;31026;43.780;25.948;2023-03-26T02:03:37;100138.31;;;20.13;61.45
45285;BME280;31026;43.780;25.948;2023-03-26T02:06:09;100127.03;;;20.09;61.89
45285;BME280;31026;43.780;25.948;2023-03-26T02:08:44;100124.34;;;20.09;61.51
45285;BME280;31026;43.780;25.948;2023-03-26T02:11:16;100127.91;;;20.10;61.76
45285;BME280;31026;43.780;25.948;2023-03-26T02:13:44;100131.38;;;20.02;61.87
45285;BME280;31026;43.780;25.948;2023-03-26T02:16:13;100135.38;;;19.98;61.93
45285;BME280;31026;43.780;25.948;2023-03-26T02:18:42;100132.63;;;20.16;61.63
45285;BME280;31026;43.780;25.948;2023-03-26T02:21:13;100111.38;;;20.22;61.44
45285;BME280;31026;43.780;25.948;2023-03-26T02:23:44;100120.44;;;20.21;61.76
45285;BME280;31026;43.780;25.948;2023-03-26T02:26:17;100131.38;;;20.28;61.43
45285;BME280;31026;43.780;25.948;2023-03-26T02:28:45;100127.84;;;20.27;61.70
45285;BME280;31026;43.780;25.948;2023-03-26T02:31:14;100122.81;;;20.33;61.65
45285;BME280;31026;43.780;25.948;2023-03-26T02:33:43;100128.94;;;20.51;60.95
45285;BME280;31026;43.780;25.948;2023-03-26T02:36:13;100134.13;;;20.44;61.30
45285;BME280;31026;43.780;25.948;2023-03-26T02:38:46;100131.94;;;20.40;61.08
45285;BME280;31026;43.780;25.948;2023-03-26T02:41:17;100126.31;;;20.25;61.71
45285;BME280;31026;43.780;25.948;2023-03-26T02:43:45;100126.16;;;20.26;61.73
45285;BME280;31026;43.780;25.948;2023-03-26T02:46:14;100127.41;;;20.40;61.24
45285;BME280;31026;43.780;25.948;2023-03-26T02:48:42;100134.28;;;20.43;61.17
45285;BME280;31026;43.780;25.948;2023-03-26T02:51:10;100139.66;;;20.43;61.52
45285;BME280;31026;43.780;25.948;2023-03-26T02:53:39;100133.28;;;20.44;61.20
45285;BME280;31026;43.780;25.948;2023-03-26T02:56:08;100128.69;;;20.62;60.93
45285;BME280;31026;43.780;25.948;2023-03-26T02:58:39;100128.38;;;20.65;60.68
45285;BME280;31026;43.780;25.948;2023-03-26T03:01:09;100137.78;;;20.61;60.99
45285;BME280;31026;43.780;25.948;2023-03-26T03:03:38;100142.59;;;20.58;60.67
45285;BME280;31026;43.780;25.948;2023-03-26T03:06:06;100134.69;;;20.56;61.10
45285;BME280;31026;43.780;25.948;2023-03-26T03:08:35;100132.50;;;20.52;61.02
45285;BME280;31026;43.780;25.948;2023-03-26T03:11:06;100145.56;;;20.46;61.15
45285;BME280;31026;43.780;25.948;2023-03-26T03:13:35;100151.06;;;20.45;61.37
45285;BME280;31026;43.780;25.948;2023-03-26T03:16:06;100152.28;;;20.51;61.10
45285;BME280;31026;43.780;25.948;2023-03-26T03:18:35;100143.53;;;20.49;61.48
45285;BME280;31026;43.780;25.948;2023-03-26T03:21:04;100140.41;;;20.53;61.12
45285;BME280;31026;43.780;25.948;2023-03-26T03:23:33;100132.91;;;20.65;60.95
45285;BME280;31026;43.780;25.948;2023-03-26T03:26:02;100132.78;;;20.75;60.82
45285;BME280;31026;43.780;25.948;2023-03-26T03:28:31;100137.19;;;20.84;60.32
45285;BME280;31026;43.780;25.948;2023-03-26T03:30:59;100139.84;;;20.76;60.67
45285;BME280;31026;43.780;25.948;2023-03-26T03:33:32;100141.44;;;20.60;60.93
45285;BME280;31026;43.780;25.948;2023-03-26T03:36:00;100138.75;;;20.60;61.23
45285;BME280;31026;43.780;25.948;2023-03-26T03:38:34;100140.75;;;20.58;61.07
45285;BME280;31026;43.780;25.948;2023-03-26T03:41:02;100133.63;;;20.49;61.46
45285;BME280;31026;43.780;25.948;2023-03-26T03:43:32;100146.91;;;20.51;61.44
45285;BME280;31026;43.780;25.948;2023-03-26T03:46:00;100124.91;;;20.47;61.53
45285;BME280;31026;43.780;25.948;2023-03-26T03:48:29;100125.53;;;20.67;61.19
45285;BME280;31026;43.780;25.948;2023-03-26T03:51:00;100140.84;;;20.75;60.62
45285;BME280;31026;43.780;25.948;2023-03-26T03:53:29;100135.44;;;20.66;60.91
45285;BME280;31026;43.780;25.948;2023-03-26T03:56:01;100130.34;;;20.55;61.01
45285;BME280;31026;43.780;25.948;2023-03-26T03:58:36;100145.53;;;20.73;60.99
45285;BME280;31026;43.780;25.948;2023-03-26T04:01:05;100140.69;;;20.76;60.69
45285;BME280;31026;43.780;25.948;2023-03-26T04:03:37;100147.63;;;20.87;60.51
45285;BME280;31026;43.780;25.948;2023-03-26T04:06:10;100134.19;;;20.87;60.56
45285;BME280;31026;43.780;25.948;2023-03-26T04:08:43;100140.19;;;20.81;60.47
45285;BME280;31026;43.780;25.948;2023-03-26T04:11:11;100140.53;;;20.78;60.49
45285;BME280;31026;43.780;25.948;2023-03-26T04:13:40;100148.22;;;20.73;60.68
45285;BME280;31026;43.780;25.948;2023-03-26T04:16:08;100138.13;;;20.66;60.65
45285;BME280;31026;43.780;25.948;2023-03-26T04:18:37;100137.97;;;20.68;60.81
45285;BME280;31026;43.780;25.948;2023-03-26T04:21:05;100148.19;;;20.64;61.30
45285;BME280;31026;43.780;25.948;2023-03-26T04:23:40;100143.50;;;20.66;61.02
45285;BME280;31026;43.780;25.948;2023-03-26T04:26:10;100145.41;;;20.82;60.45
45285;BME280;31026;43.780;25.948;2023-03-26T04:28:42;100156.97;;;20.75;60.58
45285;BME280;31026;43.780;25.948;2023-03-26T04:31:13;100146.69;;;20.70;60.87
45285;BME280;31026;43.780;25.948;2023-03-26T04:33:44;100140.34;;;20.71;60.99
45285;BME280;31026;43.780;25.948;2023-03-26T04:36:14;100150.63;;;20.84;60.69
45285;BME280;31026;43.780;25.948;2023-03-26T04:38:46;100147.16;;;21.00;60.19
45285;BME280;31026;43.780;25.948;2023-03-26T04:41:23;100154.69;;;20.96;60.11
45285;BME280;31026;43.780;25.948;2023-03-26T04:43:53;100151.94;;;20.80;60.63
45285;BME280;31026;43.780;25.948;2023-03-26T04:46:21;100153.28;;;20.76;61.07
45285;BME280;31026;43.780;25.948;2023-03-26T04:48:50;100151.75;;;20.73;60.85
45285;BME280;31026;43.780;25.948;2023-03-26T04:51:18;100145.88;;;20.70;61.26
45285;BME280;31026;43.780;25.948;2023-03-26T04:53:51;100147.88;;;20.68;61.26
45285;BME280;31026;43.780;25.948;2023-03-26T04:56:26;100140.50;;;20.70;61.40
45285;BME280;31026;43.780;25.948;2023-03-26T04:58:57;100163.50;;;20.72;61.18
45285;BME280;31026;43.780;25.948;2023-03-26T05:01:26;100153.09;;;20.69;61.23
45285;BME280;31026;43.780;25.948;2023-03-26T05:03:56;100151.09;;;20.71;61.00
45285;BME280;31026;43.780;25.948;2023-03-26T05:06:25;100161.78;;;20.63;61.38
45285;BME280;31026;43.780;25.948;2023-03-26T05:08:57;100167.66;;;20.66;60.97
45285;BME280;31026;43.780;25.948;2023-03-26T05:11:26;100168.19;;;20.70;60.95
45285;BME280;31026;43.780;25.948;2023-03-26T05:13:55;100165.88;;;20.75;60.86
45285;BME280;31026;43.780;25.948;2023-03-26T05:16:24;100172.06;;;20.68;60.81
45285;BME280;31026;43.780;25.948;2023-03-26T05:18:52;100173.88;;;20.67;61.35
45285;BME280;31026;43.780;25.948;2023-03-26T05:21:21;100172.84;;;20.34;62.01
45285;BME280;31026;43.780;25.948;2023-03-26T05:23:49;100190.28;;;19.85;63.43
45285;BME280;31026;43.780;25.948;2023-03-26T05:26:20;100199.00;;;19.52;64.14
45285;BME280;31026;43.780;25.948;2023-03-26T05:28:48;100202.97;;;19.30;64.85
45285;BME280;31026;43.780;25.948;2023-03-26T05:31:17;100214.50;;;19.12;65.19
45285;BME280;31026;43.780;25.948;2023-03-26T05:33:45;100224.41;;;19.02;64.83
45285;BME280;31026;43.780;25.948;2023-03-26T05:36:14;100231.53;;;18.93;65.39
45285;BME280;31026;43.780;25.948;2023-03-26T05:38:43;100226.06;;;18.85;65.82
45285;BME280;31026;43.780;25.948;2023-03-26T05:41:15;100231.69;;;18.82;65.96
45285;BME280;31026;43.780;25.948;2023-03-26T05:43:46;100236.78;;;18.85;65.96
45285;BME280;31026;43.780;25.948;2023-03-26T05:46:15;100210.81;;;19.59;63.78
45285;BME280;31026;43.780;25.948;2023-03-26T05:48:44;100240.31;;;19.59;63.95
45285;BME280;31026;43.780;25.948;2023-03-26T05:51:12;100243.63;;;19.25;64.43
45285;BME280;31026;43.780;25.948;2023-03-26T05:53:42;100258.41;;;19.01;64.68
45285;BME280;31026;43.780;25.948;2023-03-26T05:56:11;100257.50;;;18.83;65.57
45285;BME280;31026;43.780;25.948;2023-03-26T05:58:40;100256.38;;;18.76;66.05
45285;BME280;31026;43.780;25.948;2023-03-26T06:01:11;100243.69;;;19.15;64.66
45285;BME280;31026;43.780;25.948;2023-03-26T06:03:43;100252.34;;;19.55;63.56
45285;BME280;31026;43.780;25.948;2023-03-26T06:06:13;100249.00;;;19.25;64.18
45285;BME280;31026;43.780;25.948;2023-03-26T06:08:41;100250.84;;;18.97;65.38
45285;BME280;31026;43.780;25.948;2023-03-26T06:11:11;100261.16;;;18.82;65.57
45285;BME280;31026;43.780;25.948;2023-03-26T06:13:41;100257.66;;;18.72;66.24
45285;BME280;31026;43.780;25.948;2023-03-26T06:16:14;100239.22;;;19.06;64.93
45285;BME280;31026;43.780;25.948;2023-03-26T06:18:43;100251.41;;;19.46;63.84
45285;BME280;31026;43.780;25.948;2023-03-26T06:21:11;100246.78;;;19.20;64.29
45285;BME280;31026;43.780;25.948;2023-03-26T06:23:40;100259.00;;;18.95;64.50
45285;BME280;31026;43.780;25.948;2023-03-26T06:26:08;100267.06;;;18.76;64.75
45285;BME280;31026;43.780;25.948;2023-03-26T06:28:37;100254.59;;;18.66;65.73
45285;BME280;31026;43.780;25.948;2023-03-26T06:31:05;100242.16;;;19.13;64.46
45285;BME280;31026;43.780;25.948;2023-03-26T06:33:36;100254.34;;;19.25;64.04
45285;BME280;31026;43.780;25.948;2023-03-26T06:36:11;100261.41;;;18.98;63.79
45285;BME280;31026;43.780;25.948;2023-03-26T06:38:39;100250.63;;;18.80;63.63
45285;BME280;31026;43.780;25.948;2023-03-26T06:41:08;100256.94;;;18.69;63.94
45285;BME280;31026;43.780;25.948;2023-03-26T06:43:36;100251.72;;;18.78;64.66
45285;BME280;31026;43.780;25.948;2023-03-26T06:46:07;100242.31;;;19.57;62.49
45285;BME280;31026;43.780;25.948;2023-03-26T06:48:39;100242.28;;;19.39;62.48
45285;BME280;31026;43.780;25.948;2023-03-26T06:51:08;100252.78;;;19.04;63.88
45285;BME280;31026;43.780;25.948;2023-03-26T06:53:36;100259.19;;;18.84;64.18
45285;BME280;31026;43.780;25.948;2023-03-26T06:56:05;100265.69;;;18.72;64.66
45285;BME280;31026;43.780;25.948;2023-03-26T06:58:33;100255.25;;;19.16;63.76
45285;BME280;31026;43.780;25.948;2023-03-26T07:01:02;100261.75;;;19.41;62.75
45285;BME280;31026;43.780;25.948;2023-03-26T07:03:30;100272.91;;;19.08;64.02
45285;BME280;31026;43.780;25.948;2023-03-26T07:06:01;100287.69;;;18.85;64.09
45285;BME280;31026;43.780;25.948;2023-03-26T07:08:30;100284.44;;;18.72;64.35
45285;BME280;31026;43.780;25.948;2023-03-26T07:10:59;100294.44;;;18.89;64.27
45285;BME280;31026;43.780;25.948;2023-03-26T07:13:27;100284.81;;;19.52;63.00
45285;BME280;31026;43.780;25.948;2023-03-26T07:15:56;100279.72;;;19.31;63.41
45285;BME280;31026;43.780;25.948;2023-03-26T07:18:24;100282.63;;;19.10;64.13
45285;BME280;31026;43.780;25.948;2023-03-26T07:20:54;100285.09;;;18.93;64.31
45285;BME280;31026;43.780;25.948;2023-03-26T07:23:25;100283.16;;;18.85;64.87
45285;BME280;31026;43.780;25.948;2023-03-26T07:25:54;100283.75;;;18.79;64.74
45285;BME280;31026;43.780;25.948;2023-03-26T07:28:24;100290.44;;;19.03;65.23
45285;BME280;31026;43.780;25.948;2023-03-26T07:30:58;100277.38;;;19.73;63.09
45285;BME280;31026;43.780;25.948;2023-03-26T07:33:28;100280.44;;;19.78;63.16
45285;BME280;31026;43.780;25.948;2023-03-26T07:36:00;100288.22;;;19.54;64.28
45285;BME280;31026;43.780;25.948;2023-03-26T07:38:40;100292.28;;;19.30;64.84
45285;BME280;31026;43.780;25.948;2023-03-26T07:41:14;100286.41;;;19.17;65.30
45285;BME280;31026;43.780;25.948;2023-03-26T07:43:53;100290.28;;;19.04;65.83
45285;BME280;31026;43.780;25.948;2023-03-26T07:46:26;100281.84;;;18.99;65.79
45285;BME280;31026;43.780;25.948;2023-03-26T07:48:56;100287.50;;;19.52;63.98
45285;BME280;31026;43.780;25.948;2023-03-26T07:51:27;100260.03;;;19.85;62.13
45285;BME280;31026;43.780;25.948;2023-03-26T07:53:58;100275.13;;;19.68;63.22
45285;BME280;31026;43.780;25.948;2023-03-26T07:56:31;100267.03;;;19.51;63.62
45285;BME280;31026;43.780;25.948;2023-03-26T07:59:06;100279.22;;;19.45;64.26
45285;BME280;31026;43.780;25.948;2023-03-26T08:01:42;100291.69;;;19.36;64.33
45285;BME280;31026;43.780;25.948;2023-03-26T08:04:25;100304.69;;;19.31;64.61
45285;BME280;31026;43.780;25.948;2023-03-26T08:06:58;100288.00;;;19.37;64.25
45285;BME280;31026;43.780;25.948;2023-03-26T08:09:34;100319.78;;;19.32;65.04
45285;BME280;31026;43.780;25.948;2023-03-26T08:12:05;100313.03;;;19.28;65.12
45285;BME280;31026;43.780;25.948;2023-03-26T08:14:43;100323.34;;;19.23;65.04
45285;BME280;31026;43.780;25.948;2023-03-26T08:17:13;100327.84;;;19.88;62.59
45285;BME280;31026;43.780;25.948;2023-03-26T08:19:50;100312.63;;;19.78;61.40
45285;BME280;31026;43.780;25.948;2023-03-26T08:22:23;100314.63;;;19.48;63.12
45285;BME280;31026;43.780;25.948;2023-03-26T08:25:03;100334.94;;;19.51;64.36
45285;BME280;31026;43.780;25.948;2023-03-26T08:27:38;100326.31;;;19.47;62.72
45285;BME280;31026;43.780;25.948;2023-03-26T08:30:10;100321.28;;;19.44;64.41
45285;BME280;31026;43.780;25.948;2023-03-26T08:32:41;100355.81;;;19.47;64.46
45285;BME280;31026;43.780;25.948;2023-03-26T08:35:12;100338.25;;;19.35;64.19
45285;BME280;31026;43.780;25.948;2023-03-26T08:37:44;100339.69;;;19.30;64.67
45285;BME280;31026;43.780;25.948;2023-03-26T08:40:17;100344.13;;;19.48;63.19
45285;BME280;31026;43.780;25.948;2023-03-26T08:45:39;100333.00;;;19.71;62.27
45285;BME280;31026;43.780;25.948;2023-03-26T08:48:34;100337.75;;;19.50;62.46
45285;BME280;31026;43.780;25.948;2023-03-26T08:51:14;100332.78;;;19.27;62.98
45285;BME280;31026;43.780;25.948;2023-03-26T08:53:54;100338.31;;;19.16;62.86
45285;BME280;31026;43.780;25.948;2023-03-26T08:56:32;100328.09;;;19.01;63.87
45285;BME280;31026;43.780;25.948;2023-03-26T08:59:13;100327.38;;;18.99;64.24
45285;BME280;31026;43.780;25.948;2023-03-26T09:04:45;100325.38;;;20.12;60.30
45285;BME280;31026;43.780;25.948;2023-03-26T09:07:25;100321.47;;;19.89;60.39
45285;BME280;31026;43.780;25.948;2023-03-26T09:10:05;100321.19;;;19.64;61.55
45285;BME280;31026;43.780;25.948;2023-03-26T09:21:02;100311.13;;;19.11;63.07
45285;BME280;31026;43.780;25.948;2023-03-26T09:23:41;100295.34;;;19.35;62.55
45285;BME280;31026;43.780;25.948;2023-03-26T09:26:24;100301.16;;;20.04;59.99
45285;BME280;31026;43.780;25.948;2023-03-26T09:31:43;100300.06;;;19.51;61.83
45285;BME280;31026;43.780;25.948;2023-03-26T09:34:21;100305.94;;;19.37;62.06
45285;BME280;31026;43.780;25.948;2023-03-26T09:36:59;100299.47;;;19.30;62.56
45285;BME280;31026;43.780;25.948;2023-03-26T09:39:34;100294.97;;;19.30;63.02
45285;BME280;31026;43.780;25.948;2023-03-26T09:42:07;100306.13;;;19.25;63.29
45285;BME280;31026;43.780;25.948;2023-03-26T09:47:34;100299.97;;;19.15;63.54
45285;BME280;31026;43.780;25.948;2023-03-26T09:50:16;100292.75;;;19.16;63.66
45285;BME280;31026;43.780;25.948;2023-03-26T09:52:54;100291.38;;;19.12;63.54
45285;BME280;31026;43.780;25.948;2023-03-26T09:55:41;100292.97;;;19.04;63.72
45285;BME280;31026;43.780;25.948;2023-03-26T09:58:16;100300.56;;;19.09;64.00
45285;BME280;31026;43.780;25.948;2023-03-26T10:00:50;100282.25;;;19.32;65.32
45285;BME280;31026;43.780;25.948;2023-03-26T10:03:26;100284.19;;;19.40;63.87
45285;BME280;31026;43.780;25.948;2023-03-26T10:05:58;100288.59;;;19.31;63.74
45285;BME280;31026;43.780;25.948;2023-03-26T10:11:20;100279.09;;;19.64;64.70
45285;BME280;31026;43.780;25.948;2023-03-26T10:13:54;100270.66;;;19.59;63.49
45285;BME280;31026;43.780;25.948;2023-03-26T10:16:28;100260.28;;;19.74;64.24
45285;BME280;31026;43.780;25.948;2023-03-26T10:19:01;100265.22;;;19.69;64.37
45285;BME280;31026;43.780;25.948;2023-03-26T10:21:35;100252.88;;;19.58;63.53
45285;BME280;31026;43.780;25.948;2023-03-26T10:24:09;100265.66;;;19.46;63.98
45285;BME280;31026;43.780;25.948;2023-03-26T10:26:55;100255.22;;;19.43;64.02
45285;BME280;31026;43.780;25.948;2023-03-26T10:29:36;100260.59;;;19.43;63.52
45285;BME280;31026;43.780;25.948;2023-03-26T10:32:10;100255.81;;;19.37;63.74
45285;BME280;31026;43.780;25.948;2023-03-26T10:34:51;100251.91;;;19.32;63.50
45285;BME280;31026;43.780;25.948;2023-03-26T10:37:25;100261.47;;;19.16;63.68
45285;BME280;31026;43.780;25.948;2023-03-26T10:40:08;100265.25;;;19.14;64.22
45285;BME280;31026;43.780;25.948;2023-03-26T10:42:46;100265.34;;;19.04;64.34
45285;BME280;31026;43.780;25.948;2023-03-26T10:45:30;100253.75;;;19.03;64.62
45285;BME280;31026;43.780;25.948;2023-03-26T10:48:19;100257.44;;;19.02;64.35
45285;BME280;31026;43.780;25.948;2023-03-26T10:51:12;100254.44;;;19.05;64.57
45285;BME280;31026;43.780;25.948;2023-03-26T10:53:46;100235.63;;;19.15;64.06
45285;BME280;31026;43.780;25.948;2023-03-26T10:56:20;100223.19;;;19.24;63.50
45285;BME280;31026;43.780;25.948;2023-03-26T10:58:53;100218.03;;;19.13;63.65
45285;BME280;31026;43.780;25.948;2023-03-26T11:01:30;100234.00;;;19.04;63.77
45285;BME280;31026;43.780;25.948;2023-03-26T11:04:00;100227.41;;;18.99;63.59
45285;BME280;31026;43.780;25.948;2023-03-26T11:06:35;100225.88;;;18.96;62.96
45285;BME280;31026;43.780;25.948;2023-03-26T11:09:09;100214.28;;;18.96;62.83
45285;BME280;31026;43.780;25.948;2023-03-26T11:11:44;100201.91;;;18.95;63.11
45285;BME280;31026;43.780;25.948;2023-03-26T11:14:21;100182.47;;;18.93;63.40
45285;BME280;31026;43.780;25.948;2023-03-26T11:16:54;100196.69;;;18.93;62.59
45285;BME280;31026;43.780;25.948;2023-03-26T11:19:29;100209.94;;;18.95;63.36
45285;BME280;31026;43.780;25.948;2023-03-26T11:22:02;100199.22;;;18.95;63.25
45285;BME280;31026;43.780;25.948;2023-03-26T11:27:26;100200.38;;;18.92;62.77
45285;BME280;31026;43.780;25.948;2023-03-26T11:32:51;100207.53;;;18.92;61.99
45285;BME280;31026;43.780;25.948;2023-03-26T11:35:24;100211.25;;;18.91;62.44
45285;BME280;31026;43.780;25.948;2023-03-26T11:37:54;100192.63;;;18.89;62.17
45285;BME280;31026;43.780;25.948;2023-03-26T11:40:28;100197.97;;;18.89;62.66
45285;BME280;31026;43.780;25.948;2023-03-26T11:42:59;100182.91;;;18.88;62.31
45285;BME280;31026;43.780;25.948;2023-03-26T11:45:30;100186.56;;;18.87;62.96
45285;BME280;31026;43.780;25.948;2023-03-26T11:48:08;100179.50;;;18.86;62.59
45285;BME280;31026;43.780;25.948;2023-03-26T11:50:40;100199.72;;;18.80;62.47
45285;BME280;31026;43.780;25.948;2023-03-26T11:53:13;100189.00;;;18.80;62.94
45285;BME280;31026;43.780;25.948;2023-03-26T11:55:45;100189.84;;;18.81;62.77
45285;BME280;31026;43.780;25.948;2023-03-26T11:58:25;100179.38;;;18.78;62.75
45285;BME280;31026;43.780;25.948;2023-03-26T12:01:01;100181.66;;;18.82;62.74
45285;BME280;31026;43.780;25.948;2023-03-26T12:03:33;100173.78;;;18.81;62.55
45285;BME280;31026;43.780;25.948;2023-03-26T12:06:02;100175.72;;;18.79;62.74
45285;BME280;31026;43.780;25.948;2023-03-26T12:08:32;100157.94;;;18.78;63.86
45285;BME280;31026;43.780;25.948;2023-03-26T12:11:05;100163.31;;;18.78;63.54
45285;BME280;31026;43.780;25.948;2023-03-26T12:13:36;100166.13;;;18.86;62.14
45285;BME280;31026;43.780;25.948;2023-03-26T12:16:09;100170.03;;;18.92;62.49
45285;BME280;31026;43.780;25.948;2023-03-26T12:18:41;100159.97;;;19.03;61.66
45285;BME280;31026;43.780;25.948;2023-03-26T12:21:14;100148.88;;;18.98;61.83
45285;BME280;31026;43.780;25.948;2023-03-26T12:23:50;100146.78;;;18.92;62.68
45285;BME280;31026;43.780;25.948;2023-03-26T12:26:27;100148.09;;;18.88;62.06
45285;BME280;31026;43.780;25.948;2023-03-26T12:29:03;100151.88;;;18.85;61.88
45285;BME280;31026;43.780;25.948;2023-03-26T12:31:45;100144.41;;;18.89;61.76
45285;BME280;31026;43.780;25.948;2023-03-26T12:34:20;100152.03;;;18.84;61.96
45285;BME280;31026;43.780;25.948;2023-03-26T12:36:51;100151.34;;;18.82;61.04
45285;BME280;31026;43.780;25.948;2023-03-26T12:42:22;100136.28;;;18.71;61.08
45285;BME280;31026;43.780;25.948;2023-03-26T12:44:52;100124.03;;;18.68;61.20
45285;BME280;31026;43.780;25.948;2023-03-26T12:47:24;100126.03;;;18.66;60.97
45285;BME280;31026;43.780;25.948;2023-03-26T12:49:56;100126.03;;;18.66;61.69
45285;BME280;31026;43.780;25.948;2023-03-26T12:52:29;100114.63;;;18.64;61.49
45285;BME280;31026;43.780;25.948;2023-03-26T12:55:07;100106.72;;;18.63;61.60
45285;BME280;31026;43.780;25.948;2023-03-26T12:57:41;100103.22;;;18.62;62.34
45285;BME280;31026;43.780;25.948;2023-03-26T13:00:19;100106.72;;;18.63;61.90
45285;BME280;31026;43.780;25.948;2023-03-26T13:02:53;100109.69;;;18.60;62.38
45285;BME280;31026;43.780;25.948;2023-03-26T13:05:34;100101.28;;;18.55;62.57
45285;BME280;31026;43.780;25.948;2023-03-26T13:08:11;100095.47;;;18.59;62.60
45285;BME280;31026;43.780;25.948;2023-03-26T13:10:49;100100.81;;;18.59;62.53
45285;BME280;31026;43.780;25.948;2023-03-26T13:16:11;100096.47;;;18.58;62.81
45285;BME280;31026;43.780;25.948;2023-03-26T13:18:44;100095.63;;;18.58;62.90
45285;BME280;31026;43.780;25.948;2023-03-26T13:21:18;100099.44;;;18.55;62.99
45285;BME280;31026;43.780;25.948;2023-03-26T13:23:51;100098.75;;;18.53;62.70
45285;BME280;31026;43.780;25.948;2023-03-26T13:26:30;100095.53;;;18.49;63.19
45285;BME280;31026;43.780;25.948;2023-03-26T13:29:01;100099.44;;;18.55;63.19
45285;BME280;31026;43.780;25.948;2023-03-26T13:31:35;100090.44;;;18.56;63.54
45285;BME280;31026;43.780;25.948;2023-03-26T13:34:09;100088.59;;;18.57;63.46
45285;BME280;31026;43.780;25.948;2023-03-26T13:36:55;100089.28;;;18.59;62.65
45285;BME280;31026;43.780;25.948;2023-03-26T13:39:31;100093.63;;;18.60;62.80
45285;BME280;31026;43.780;25.948;2023-03-26T13:42:05;100093.50;;;18.61;62.57
45285;BME280;31026;43.780;25.948;2023-03-26T13:44:40;100091.81;;;18.60;64.44